Time;durP1;ratioP1;P1;durP2;ratioP2;P2;SDS_P1;SDS_P2;PMS_P1;PMS_P2;Temp;Humidity;BMP_temperature;BMP_pressure;BME280_temperature;BME280_humidity;BME280_pressure;Samples;Min_cycle;Max_cycle;Signal;HPM_P1;HPM_P2
2022/10/07 00:00:08;;;;;;;2.37;1.90;;;13.70;98.00;;;;;;5073296;28;20478;-67
2022/10/07 00:02:35;;;;;;;3.70;2.00;;;13.60;98.00;;;;;;5091469;28;20469;-67
2022/10/07 00:05:03;;;;;;;2.93;2.13;;;13.40;98.00;;;;;;5094994;28;20477;-67
2022/10/07 00:07:30;;;;;;;6.20;2.67;;;13.30;98.00;;;;;;5094991;28;20466;-67
2022/10/07 00:09:58;;;;;;;2.67;1.90;;;13.20;98.00;;;;;;5076913;28;20460;-68
2022/10/07 00:12:25;;;;;;;3.10;1.90;;;13.10;98.00;;;;;;5094712;28;20457;-67
2022/10/07 00:14:53;;;;;;;2.73;2.10;;;13.10;98.00;;;;;;5076779;28;20505;-67
2022/10/07 00:17:20;;;;;;;2.77;2.20;;;13.10;98.00;;;;;;5094688;28;20463;-68
2022/10/07 00:19:48;;;;;;;3.97;2.10;;;13.20;98.00;;;;;;5094745;28;20864;-67
2022/10/07 00:22:15;;;;;;;2.60;2.07;;;13.30;98.00;;;;;;5094367;28;20497;-67
2022/10/07 00:24:42;;;;;;;4.70;2.53;;;13.40;98.00;;;;;;5094642;28;20458;-67
2022/10/07 00:27:11;;;;;;;3.20;2.20;;;13.50;98.00;;;;;;5094506;28;20445;-67
2022/10/07 00:29:38;;;;;;;8.47;3.67;;;13.50;98.00;;;;;;5094334;28;20453;-67
2022/10/07 00:32:06;;;;;;;6.70;3.40;;;13.50;98.00;;;;;;5094238;28;20465;-67
2022/10/07 00:34:33;;;;;;;4.87;2.63;;;13.40;98.00;;;;;;5094518;28;20453;-67
2022/10/07 00:37:00;;;;;;;4.80;2.10;;;13.40;98.00;;;;;;5094285;28;20470;-67
2022/10/07 00:39:27;;;;;;;8.17;2.53;;;13.30;98.00;;;;;;5094455;28;20474;-67
2022/10/07 00:41:54;;;;;;;4.37;2.10;;;13.30;98.00;;;;;;5094135;28;20530;-67
2022/10/07 00:44:41;;;;;;;5.90;2.80;;;13.30;98.00;;;;;;5076319;28;20462;-67
2022/10/07 00:47:14;;;;;;;5.50;2.30;;;13.40;98.00;;;;;;5094105;28;20455;-68
2022/10/07 00:49:45;;;;;;;2.83;2.07;;;13.50;98.00;;;;;;5094353;28;20548;-67
2022/10/07 00:52:15;;;;;;;3.53;2.30;;;13.60;98.00;;;;;;5093912;28;20476;-67
2022/10/07 00:54:43;;;;;;;3.30;2.00;;;13.70;98.00;;;;;;5093966;28;20460;-67
2022/10/07 00:57:10;;;;;;;4.23;2.53;;;13.70;98.00;;;;;;5094149;28;21127;-67
2022/10/07 00:59:39;;;;;;;4.53;2.33;;;13.70;98.00;;;;;;5094433;28;20457;-68
2022/10/07 01:02:08;;;;;;;4.23;2.03;;;13.60;98.00;;;;;;5093833;28;20491;-67
2022/10/07 01:04:36;;;;;;;4.30;1.90;;;13.80;98.00;;;;;;5093974;28;20453;-67
2022/10/07 01:07:03;;;;;;;3.57;2.57;;;13.90;98.00;;;;;;5093875;28;20455;-67
2022/10/07 01:09:30;;;;;;;3.67;1.77;;;13.90;98.00;;;;;;5093783;28;20805;-67
2022/10/07 01:12:03;;;;;;;2.40;2.07;;;14.00;98.00;;;;;;5093720;28;20459;-67
2022/10/07 01:14:47;;;;;;;4.67;2.83;;;14.00;98.00;;;;;;5092737;28;20474;-67
2022/10/07 01:17:24;;;;;;;2.73;2.03;;;13.90;98.00;;;;;;5093519;28;20549;-67
2022/10/07 01:20:11;;;;;;;2.27;1.87;;;13.80;98.00;;;;;;5093476;28;20514;-67
2022/10/07 01:22:48;;;;;;;3.07;2.00;;;13.90;98.00;;;;;;5093334;28;20516;-67
2022/10/07 01:25:32;;;;;;;2.40;2.13;;;13.80;98.00;;;;;;5093644;28;20456;-67
2022/10/07 01:28:06;;;;;;;2.80;1.97;;;13.90;98.00;;;;;;5075066;28;20957;-67
2022/10/07 01:30:38;;;;;;;3.30;1.80;;;13.80;98.00;;;;;;5093383;28;20452;-67
2022/10/07 01:33:12;;;;;;;2.60;2.07;;;13.70;98.00;;;;;;5093128;28;20459;-68
2022/10/07 01:35:41;;;;;;;3.00;1.90;;;13.80;98.00;;;;;;5093345;28;20466;-67
2022/10/07 01:38:10;;;;;;;1.70;1.70;;;13.90;98.00;;;;;;5093053;28;20490;-67
2022/10/07 01:40:44;;;;;;;1.77;1.77;;;14.10;98.00;;;;;;5093041;28;20481;-67
2022/10/07 01:43:15;;;;;;;2.23;1.77;;;14.20;98.00;;;;;;5092962;28;21006;-67
2022/10/07 01:45:43;;;;;;;4.40;2.33;;;14.10;98.00;;;;;;5093109;28;20465;-67
2022/10/07 01:48:11;;;;;;;3.30;1.90;;;14.10;98.00;;;;;;5092743;28;20892;-67
2022/10/07 01:50:39;;;;;;;2.70;1.83;;;14.10;98.00;;;;;;5092770;28;20470;-67
2022/10/07 01:53:30;;;;;;;1.90;1.80;;;14.00;98.00;;;;;;5092824;28;20459;-67
2022/10/07 01:56:12;;;;;;;4.80;2.40;;;13.90;98.00;;;;;;5076304;28;20455;-67
2022/10/07 01:58:55;;;;;;;2.37;1.87;;;14.00;98.00;;;;;;5092986;28;20456;-67
2022/10/07 02:01:28;;;;;;;2.47;1.87;;;14.00;98.00;;;;;;5092854;28;20493;-67
2022/10/07 02:04:21;;;;;;;2.20;1.87;;;14.00;98.00;;;;;;5075457;28;20829;-67
2022/10/07 02:06:58;;;;;;;2.30;1.80;;;14.10;98.00;;;;;;5092725;28;20458;-67
2022/10/07 02:09:32;;;;;;;2.17;1.87;;;14.10;98.00;;;;;;5092675;28;20462;-67
2022/10/07 02:12:07;;;;;;;3.30;2.23;;;14.00;98.00;;;;;;5092391;28;20992;-67
2022/10/07 02:14:44;;;;;;;4.00;2.27;;;14.10;98.00;;;;;;5092445;28;20456;-67
2022/10/07 02:17:17;;;;;;;4.47;1.93;;;14.10;98.00;;;;;;5092428;28;20452;-67
2022/10/07 02:19:48;;;;;;;2.60;2.17;;;14.10;98.00;;;;;;5092583;28;20511;-67
2022/10/07 02:22:17;;;;;;;2.00;1.70;;;14.00;98.00;;;;;;5092137;28;20485;-67
2022/10/07 02:24:48;;;;;;;1.60;1.60;;;14.10;98.00;;;;;;5092294;28;20455;-67
2022/10/07 02:27:18;;;;;;;2.47;1.77;;;14.10;98.00;;;;;;5092016;28;20455;-67
2022/10/07 02:29:48;;;;;;;2.10;1.90;;;14.10;98.00;;;;;;5092411;28;20464;-67
2022/10/07 02:32:20;;;;;;;3.10;1.80;;;14.10;98.00;;;;;;5091960;28;21015;-67
2022/10/07 02:34:52;;;;;;;3.43;1.90;;;14.10;98.00;;;;;;5091989;28;20455;-67
2022/10/07 02:37:23;;;;;;;2.90;2.00;;;14.00;98.00;;;;;;5092065;28;20873;-67
2022/10/07 02:39:51;;;;;;;2.50;2.00;;;14.00;98.00;;;;;;5092053;28;20458;-67
2022/10/07 02:42:26;;;;;;;2.60;1.70;;;14.00;98.00;;;;;;5092026;28;20483;-68
2022/10/07 02:45:01;;;;;;;2.43;1.60;;;14.10;98.00;;;;;;5091999;28;20458;-67
2022/10/07 02:47:34;;;;;;;3.23;2.27;;;14.10;98.00;;;;;;5091839;28;20512;-67
2022/10/07 02:50:04;;;;;;;2.47;1.90;;;14.20;98.00;;;;;;5091793;28;20958;-67
2022/10/07 02:52:33;;;;;;;3.07;2.00;;;14.30;98.00;;;;;;5091903;28;20449;-67
2022/10/07 02:55:05;;;;;;;5.40;2.20;;;14.30;98.00;;;;;;5073975;28;20462;-68
2022/10/07 02:57:36;;;;;;;2.57;1.73;;;14.10;98.00;;;;;;5091845;28;20451;-67
2022/10/07 03:00:06;;;;;;;3.83;2.03;;;14.00;98.00;;;;;;5091938;28;20450;-67
2022/10/07 03:02:42;;;;;;;3.63;2.23;;;14.20;98.00;;;;;;5091642;28;20487;-67
2022/10/07 03:05:11;;;;;;;2.60;1.87;;;14.00;98.00;;;;;;5073679;28;20463;-67
2022/10/07 03:07:39;;;;;;;3.03;1.80;;;14.00;98.00;;;;;;5091541;28;20516;-67
2022/10/07 03:10:09;;;;;;;3.20;2.23;;;14.00;98.00;;;;;;5091548;28;20450;-67
2022/10/07 03:12:36;;;;;;;5.30;2.80;;;14.00;98.00;;;;;;5091628;28;20460;-67
2022/10/07 03:15:05;;;;;;;6.40;2.00;;;14.00;98.00;;;;;;5091434;28;20462;-67
2022/10/07 03:17:32;;;;;;;2.43;1.80;;;14.00;98.00;;;;;;5091276;28;20451;-68
2022/10/07 03:19:59;;;;;;;4.50;2.00;;;13.90;98.00;;;;;;5091427;28;20459;-68
2022/10/07 03:22:28;;;;;;;3.30;2.47;;;14.00;98.00;;;;;;5091118;28;20493;-67
2022/10/07 03:24:55;;;;;;;2.70;2.20;;;14.00;98.00;;;;;;5073774;28;20459;-67
2022/10/07 03:27:22;;;;;;;3.63;2.23;;;14.00;98.00;;;;;;5091172;28;20476;-67
2022/10/07 03:29:49;;;;;;;1.97;1.80;;;13.90;98.00;;;;;;5091510;28;20456;-68
2022/10/07 03:32:18;;;;;;;1.60;1.50;;;13.80;98.00;;;;;;5091126;28;20457;-67
2022/10/07 03:34:45;;;;;;;4.00;2.00;;;13.70;98.00;;;;;;5091319;28;20462;-67
2022/10/07 03:37:12;;;;;;;2.40;1.80;;;13.80;98.00;;;;;;5091092;28;20458;-67
2022/10/07 03:39:40;;;;;;;4.10;2.10;;;13.90;98.00;;;;;;5095138;28;20979;-67
2022/10/07 03:42:08;;;;;;;3.73;2.00;;;13.80;98.00;;;;;;5095279;28;20527;-67
2022/10/07 03:44:37;;;;;;;2.00;1.57;;;13.70;98.00;;;;;;5095477;28;20469;-67
2022/10/07 03:47:04;;;;;;;3.40;1.93;;;13.70;98.00;;;;;;5095316;28;20449;-67
2022/10/07 03:49:32;;;;;;;3.07;2.10;;;13.90;98.00;;;;;;5095198;28;20456;-67
2022/10/07 03:52:00;;;;;;;2.70;1.67;;;13.90;98.00;;;;;;5095316;28;20458;-68
2022/10/07 03:54:27;;;;;;;2.33;2.10;;;13.90;98.00;;;;;;5095742;28;20916;-68
2022/10/07 03:56:54;;;;;;;3.20;2.27;;;13.80;98.00;;;;;;5095306;28;20453;-67
2022/10/07 03:59:21;;;;;;;3.10;1.73;;;13.90;98.00;;;;;;5095384;28;20453;-67
2022/10/07 04:01:48;;;;;;;4.53;2.10;;;13.90;98.00;;;;;;5095044;28;20570;-67
2022/10/07 04:04:16;;;;;;;3.07;2.23;;;14.00;98.00;;;;;;5094868;28;20454;-67
2022/10/07 04:06:44;;;;;;;2.50;2.10;;;14.00;98.00;;;;;;5094994;28;20802;-67
2022/10/07 04:09:15;;;;;;;3.00;2.10;;;14.00;98.00;;;;;;5094815;28;20664;-67
2022/10/07 04:11:42;;;;;;;1.93;1.73;;;14.10;98.00;;;;;;5077504;28;20457;-67
2022/10/07 04:14:09;;;;;;;3.67;2.23;;;14.10;98.00;;;;;;5094677;28;20451;-67
2022/10/07 04:16:37;;;;;;;3.37;2.07;;;14.00;98.00;;;;;;5094688;28;20468;-68
2022/10/07 04:19:06;;;;;;;2.40;1.73;;;14.00;98.00;;;;;;5094417;28;20461;-67
2022/10/07 04:21:33;;;;;;;2.13;1.80;;;14.00;98.00;;;;;;5094550;28;20478;-67
2022/10/07 04:24:02;;;;;;;2.67;1.90;;;13.90;98.00;;;;;;5094585;28;20837;-67
2022/10/07 04:26:29;;;;;;;2.63;2.10;;;13.90;98.00;;;;;;5094684;28;20455;-67
2022/10/07 04:28:56;;;;;;;4.37;2.20;;;14.00;98.00;;;;;;5094401;28;20445;-67
2022/10/07 04:31:23;;;;;;;2.83;2.30;;;14.00;98.00;;;;;;5094549;28;20458;-67
2022/10/07 04:33:50;;;;;;;3.73;2.83;;;14.00;98.00;;;;;;5094548;28;20454;-67
2022/10/07 04:36:17;;;;;;;2.47;2.10;;;14.00;98.00;;;;;;5094370;28;20985;-67
2022/10/07 04:38:49;;;;;;;3.70;2.00;;;14.00;98.00;;;;;;5094236;28;20453;-67
2022/10/07 04:41:17;;;;;;;2.13;1.87;;;13.90;98.00;;;;;;5094361;28;20458;-67
2022/10/07 04:43:49;;;;;;;3.23;2.40;;;13.90;98.00;;;;;;5094140;28;20477;-68
2022/10/07 04:46:16;;;;;;;2.80;1.77;;;13.80;98.00;;;;;;5094072;28;20481;-67
2022/10/07 04:48:44;;;;;;;3.53;1.83;;;13.70;98.00;;;;;;5093737;28;20871;-67
2022/10/07 04:51:12;;;;;;;1.77;1.47;;;13.70;98.00;;;;;;5093317;28;20983;-67
2022/10/07 04:53:39;;;;;;;2.63;1.90;;;13.60;98.00;;;;;;5094118;28;20461;-67
2022/10/07 04:56:07;;;;;;;4.40;1.90;;;13.60;98.00;;;;;;5094082;28;20463;-67
2022/10/07 04:58:37;;;;;;;4.10;2.03;;;13.60;98.00;;;;;;5094307;28;20439;-67
2022/10/07 05:01:09;;;;;;;2.57;1.87;;;13.50;98.00;;;;;;5094019;28;20497;-67
2022/10/07 05:03:38;;;;;;;3.57;2.00;;;13.40;98.00;;;;;;5093849;28;20480;-68
2022/10/07 05:06:06;;;;;;;3.00;2.17;;;13.30;98.00;;;;;;5093859;28;20450;-67
2022/10/07 05:08:34;;;;;;;2.07;1.73;;;13.20;98.00;;;;;;5093677;28;20515;-67
2022/10/07 05:11:02;;;;;;;2.17;1.70;;;13.20;98.00;;;;;;5093745;28;20508;-68
2022/10/07 05:13:29;;;;;;;2.70;2.20;;;13.20;98.00;;;;;;5093686;28;20534;-67
2022/10/07 05:16:00;;;;;;;2.17;1.67;;;13.10;98.00;;;;;;5093641;28;20482;-67
2022/10/07 05:18:28;;;;;;;1.80;1.70;;;13.10;98.00;;;;;;5093622;28;20477;-68
2022/10/07 05:20:55;;;;;;;2.90;1.83;;;13.00;98.00;;;;;;5093525;28;20938;-67
2022/10/07 05:23:24;;;;;;;2.73;1.63;;;13.00;98.00;;;;;;5093265;28;20838;-67
2022/10/07 05:25:58;;;;;;;2.20;1.80;;;13.10;98.00;;;;;;5093710;28;20458;-68
2022/10/07 05:28:28;;;;;;;1.90;1.77;;;13.10;98.00;;;;;;5093416;28;20475;-67
2022/10/07 05:31:07;;;;;;;2.50;1.83;;;13.20;98.00;;;;;;5093373;28;20663;-67
2022/10/07 05:33:35;;;;;;;2.47;2.30;;;13.20;98.00;;;;;;5093667;28;20457;-67
2022/10/07 05:36:02;;;;;;;3.37;2.17;;;13.30;98.00;;;;;;5093159;28;20449;-67
2022/10/07 05:38:29;;;;;;;5.43;2.10;;;13.40;98.00;;;;;;5093059;28;20458;-67
2022/10/07 05:40:58;;;;;;;2.30;1.60;;;13.40;98.00;;;;;;5093178;28;20482;-68
2022/10/07 05:43:26;;;;;;;2.40;2.10;;;13.40;98.00;;;;;;5092823;28;20486;-67
2022/10/07 05:46:01;;;;;;;4.57;2.67;;;13.40;98.00;;;;;;5092937;28;20511;-68
2022/10/07 05:48:30;;;;;;;3.40;2.00;;;13.50;98.00;;;;;;5092799;28;20550;-67
2022/10/07 05:51:04;;;;;;;2.10;1.80;;;13.30;98.00;;;;;;5092991;28;20448;-67
2022/10/07 05:53:32;;;;;;;4.37;2.10;;;13.20;98.00;;;;;;5093146;28;20547;-67
2022/10/07 05:55:59;;;;;;;4.10;2.47;;;13.20;98.00;;;;;;5092904;28;20535;-67
2022/10/07 05:58:26;;;;;;;5.27;2.30;;;13.10;98.00;;;;;;5093100;28;20476;-67
2022/10/07 06:00:55;;;;;;;3.53;2.50;;;13.20;98.00;;;;;;5092313;28;20523;-67
2022/10/07 06:03:24;;;;;;;2.70;2.00;;;13.40;98.00;;;;;;5092587;28;21088;-68
2022/10/07 06:05:54;;;;;;;3.60;2.50;;;13.50;98.00;;;;;;5092714;28;20450;-67
2022/10/07 06:08:23;;;;;;;3.07;1.93;;;13.50;98.00;;;;;;5092862;28;20459;-67
2022/10/07 06:13:36;;;;;;;2.70;1.80;;;13.40;98.00;;;;;;5092615;28;20444;-67
2022/10/07 06:16:04;;;;;;;2.70;1.90;;;13.40;98.00;;;;;;5092479;28;20450;-67
2022/10/07 06:18:32;;;;;;;5.10;2.73;;;13.40;98.00;;;;;;5092292;28;20464;-64
2022/10/07 06:21:02;;;;;;;3.73;2.53;;;13.50;98.00;;;;;;5092498;28;20453;-65
2022/10/07 06:23:29;;;;;;;2.53;1.93;;;13.50;98.00;;;;;;5092179;28;21061;-65
2022/10/07 06:25:58;;;;;;;3.80;2.43;;;13.60;98.00;;;;;;5092265;28;20951;-65
2022/10/07 06:28:25;;;;;;;3.70;2.70;;;13.60;98.00;;;;;;5074323;28;20445;-65
2022/10/07 06:30:53;;;;;;;3.30;2.00;;;13.70;98.00;;;;;;5092205;28;20463;-65
2022/10/07 06:33:20;;;;;;;6.30;2.40;;;14.00;98.00;;;;;;5092119;28;20496;-64
2022/10/07 06:35:47;;;;;;;2.60;1.93;;;14.10;98.00;;;;;;5092303;28;20454;-65
2022/10/07 06:38:16;;;;;;;2.80;1.80;;;14.10;98.00;;;;;;5091938;28;20459;-65
2022/10/07 06:40:43;;;;;;;2.73;2.10;;;14.40;98.00;;;;;;5092019;28;20488;-65
2022/10/07 06:43:10;;;;;;;3.07;2.17;;;14.60;98.00;;;;;;5073893;28;20989;-65
2022/10/07 06:45:37;;;;;;;2.63;1.73;;;14.60;98.00;;;;;;5091939;28;20505;-65
2022/10/07 06:48:04;;;;;;;3.17;2.33;;;14.60;98.00;;;;;;5073872;28;20463;-65
2022/10/07 06:50:31;;;;;;;2.93;2.20;;;14.50;98.00;;;;;;5091961;28;20448;-66
2022/10/07 06:52:59;;;;;;;2.80;2.10;;;14.60;98.00;;;;;;5091825;28;20472;-65
2022/10/07 06:55:27;;;;;;;4.10;2.27;;;14.60;98.00;;;;;;5092116;28;20885;-64
2022/10/07 06:57:54;;;;;;;2.47;1.97;;;14.70;98.00;;;;;;5073801;28;21015;-66
2022/10/07 07:00:21;;;;;;;2.83;2.20;;;14.90;98.00;;;;;;5091689;28;20455;-65
2022/10/07 07:02:48;;;;;;;3.50;2.27;;;15.00;98.00;;;;;;5091674;28;20854;-65
2022/10/07 07:05:16;;;;;;;2.97;2.10;;;15.10;98.00;;;;;;5091594;28;20455;-63
2022/10/07 07:07:43;;;;;;;2.30;1.83;;;15.10;98.00;;;;;;5091443;28;20768;-65
2022/10/07 07:10:10;;;;;;;3.23;2.23;;;15.50;98.00;;;;;;5091438;28;20459;-65
2022/10/07 07:12:39;;;;;;;4.30;2.40;;;15.80;98.00;;;;;;5090453;28;20976;-63
2022/10/07 07:15:07;;;;;;;5.33;2.67;;;16.10;98.00;;;;;;5091454;28;20478;-63
2022/10/07 07:17:34;;;;;;;7.87;2.83;;;16.20;98.00;;;;;;5091408;28;20464;-63
2022/10/07 07:20:01;;;;;;;4.97;2.57;;;16.20;98.00;;;;;;5073493;28;20466;-63
2022/10/07 07:22:30;;;;;;;5.27;2.63;;;16.10;98.00;;;;;;5091418;28;20541;-63
2022/10/07 07:24:57;;;;;;;5.20;2.77;;;16.10;98.00;;;;;;5073535;28;20456;-63
2022/10/07 07:27:24;;;;;;;3.83;2.33;;;15.90;98.00;;;;;;5091446;28;20505;-63
2022/10/07 07:29:53;;;;;;;4.70;2.57;;;15.70;98.00;;;;;;5091235;28;20453;-63
2022/10/07 07:32:20;;;;;;;4.53;2.53;;;15.70;98.00;;;;;;5091305;28;20849;-63
2022/10/07 07:34:47;;;;;;;3.60;2.07;;;15.60;98.00;;;;;;5090889;28;20451;-63
2022/10/07 07:37:14;;;;;;;3.70;2.40;;;15.60;98.00;;;;;;5091271;28;20822;-63
2022/10/07 07:39:41;;;;;;;6.13;3.00;;;15.60;98.00;;;;;;5091195;28;20467;-64
2022/10/07 07:42:08;;;;;;;3.20;2.43;;;15.60;98.00;;;;;;5073273;28;20459;-69
2022/10/07 07:44:37;;;;;;;3.17;2.30;;;15.70;98.00;;;;;;5091086;28;20494;-64
2022/10/07 07:47:06;;;;;;;7.20;2.53;;;15.60;98.00;;;;;;5090705;28;20953;-64
2022/10/07 07:49:36;;;;;;;4.97;3.27;;;15.60;98.00;;;;;;5091069;28;20485;-64
2022/10/07 07:52:04;;;;;;;3.97;2.33;;;15.60;98.00;;;;;;5073204;28;20512;-65
2022/10/07 07:54:36;;;;;;;5.93;2.60;;;15.60;98.00;;;;;;5091350;28;20968;-64
2022/10/07 07:57:04;;;;;;;8.23;3.03;;;15.80;98.00;;;;;;5091189;28;20541;-65
2022/10/07 07:59:31;;;;;;;3.57;2.40;;;15.90;98.00;;;;;;5091032;28;20462;-65
2022/10/07 08:01:59;;;;;;;2.80;2.33;;;16.10;98.00;;;;;;5090934;28;20519;-65
2022/10/07 08:04:28;;;;;;;4.80;2.70;;;16.20;98.00;;;;;;5090919;28;20483;-65
2022/10/07 08:06:55;;;;;;;4.50;2.50;;;16.30;98.00;;;;;;5091057;28;20510;-65
2022/10/07 08:09:22;;;;;;;3.00;2.23;;;16.30;98.00;;;;;;5090874;28;20550;-65
2022/10/07 08:11:50;;;;;;;4.43;3.10;;;16.40;98.00;;;;;;5091060;28;20501;-65
2022/10/07 08:14:17;;;;;;;3.90;2.40;;;16.50;98.00;;;;;;5090900;28;20942;-64
2022/10/07 08:16:44;;;;;;;3.00;2.10;;;16.50;98.00;;;;;;5090986;28;20455;-65
2022/10/07 08:19:12;;;;;;;3.13;2.53;;;16.60;98.00;;;;;;5090747;28;20459;-65
2022/10/07 08:21:42;;;;;;;5.43;2.47;;;16.70;98.00;;;;;;5090908;28;20494;-65
2022/10/07 08:24:13;;;;;;;7.70;3.20;;;16.90;98.00;;;;;;5091971;28;20487;-65
2022/10/07 08:26:40;;;;;;;3.50;2.60;;;16.90;98.00;;;;;;5094541;28;20458;-65
2022/10/07 08:29:07;;;;;;;5.83;2.93;;;17.10;98.00;;;;;;5094456;28;20455;-65
2022/10/07 08:31:34;;;;;;;8.17;2.60;;;17.20;98.00;;;;;;5094547;28;20468;-64
2022/10/07 08:34:03;;;;;;;4.73;2.20;;;17.30;98.00;;;;;;5094474;28;20448;-64
2022/10/07 08:36:32;;;;;;;3.47;2.03;;;17.40;98.00;;;;;;5094337;28;20458;-64
2022/10/07 08:39:03;;;;;;;4.50;2.60;;;17.50;98.00;;;;;;5094262;28;20463;-65
2022/10/07 08:41:42;;;;;;;3.53;2.30;;;17.70;98.00;;;;;;5094504;28;20464;-65
2022/10/07 08:44:21;;;;;;;1.90;1.83;;;17.90;98.00;;;;;;5094214;28;20479;-65
2022/10/07 08:47:00;;;;;;;2.90;2.00;;;18.00;98.00;;;;;;5077336;28;20478;-64
2022/10/07 08:49:34;;;;;;;3.20;2.13;;;18.00;98.00;;;;;;5094404;28;20460;-65
2022/10/07 08:52:09;;;;;;;2.83;1.90;;;18.00;98.00;;;;;;5094486;28;20451;-65
2022/10/07 08:54:37;;;;;;;3.00;2.20;;;18.20;98.00;;;;;;5094235;28;20456;-65
2022/10/07 08:57:21;;;;;;;2.70;2.10;;;18.30;98.00;;;;;;5094066;28;20808;-65
2022/10/07 08:59:52;;;;;;;3.27;2.07;;;18.40;98.00;;;;;;5093990;28;20976;-65
2022/10/07 09:02:31;;;;;;;2.57;1.90;;;18.60;98.00;;;;;;5093813;28;20525;-65
2022/10/07 09:05:19;;;;;;;2.50;1.67;;;18.50;98.00;;;;;;5075786;28;20484;-66
2022/10/07 09:07:51;;;;;;;6.43;2.67;;;18.70;98.00;;;;;;5093649;28;21054;-65
2022/10/07 09:10:28;;;;;;;5.73;2.60;;;18.90;98.00;;;;;;5093730;28;20509;-65
2022/10/07 09:13:01;;;;;;;2.23;1.93;;;19.10;98.00;;;;;;5071873;28;20464;-65
2022/10/07 09:15:37;;;;;;;2.53;1.90;;;19.20;98.00;;;;;;5037635;28;20452;-65
2022/10/07 09:18:11;;;;;;;3.97;2.27;;;19.30;98.00;;;;;;5070903;28;20536;-65
2022/10/07 09:20:44;;;;;;;3.80;2.20;;;19.40;98.00;;;;;;5070784;28;20963;-65
2022/10/07 09:23:15;;;;;;;9.50;2.37;;;19.50;98.00;;;;;;5070796;28;20481;-66
2022/10/07 09:25:44;;;;;;;2.93;2.10;;;19.70;98.00;;;;;;5070992;28;20557;-66
2022/10/07 09:28:13;;;;;;;4.40;2.30;;;19.80;98.00;;;;;;5071026;28;20974;-65
2022/10/07 09:30:41;;;;;;;3.10;2.10;;;20.00;98.00;;;;;;5070673;28;20492;-65
2022/10/07 09:33:15;;;;;;;2.40;1.77;;;20.20;98.00;;;;;;5071899;28;21020;-65
2022/10/07 09:35:46;;;;;;;2.43;1.90;;;20.30;98.00;;;;;;5071955;28;20955;-65
2022/10/07 09:38:14;;;;;;;3.20;1.97;;;20.40;98.00;;;;;;5072918;28;20469;-65
2022/10/07 09:43:27;;;;;;;3.47;2.10;;;20.70;98.00;;;;;;5071869;28;20475;-65
2022/10/07 09:45:56;;;;;;;2.43;1.90;;;20.80;98.00;;;;;;5072810;28;20452;-65
2022/10/07 09:48:27;;;;;;;4.33;2.23;;;20.90;98.00;;;;;;5055639;28;20474;-65
2022/10/07 09:51:14;;;;;;;2.80;2.10;;;21.10;98.00;;;;;;5073125;28;20461;-65
2022/10/07 09:53:56;;;;;;;3.53;2.30;;;21.10;98.00;;;;;;5072678;28;20481;-65
2022/10/07 09:56:39;;;;;;;4.30;2.10;;;21.10;98.00;;;;;;5072740;28;20504;-65
2022/10/07 09:59:21;;;;;;;2.27;2.10;;;21.20;98.00;;;;;;5072480;28;20453;-65
2022/10/07 10:01:54;;;;;;;3.07;2.40;;;21.40;98.00;;;;;;5072478;28;20723;-65
2022/10/07 10:04:26;;;;;;;3.27;2.30;;;21.50;98.00;;;;;;5072331;28;20488;-66
2022/10/07 10:06:57;;;;;;;3.10;2.20;;;21.60;98.00;;;;;;5072435;28;20473;-66
2022/10/07 10:09:25;;;;;;;2.73;1.90;;;21.80;98.00;;;;;;5072013;28;20964;-66
2022/10/07 10:12:12;;;;;;;2.90;2.10;;;21.90;98.00;;;;;;5072441;28;20460;-66
2022/10/07 10:14:48;;;;;;;3.93;2.63;;;21.90;98.00;;;;;;5072300;28;21089;-66
2022/10/07 10:17:26;;;;;;;2.57;1.90;;;21.70;98.00;;;;;;5072110;28;20459;-67
2022/10/07 10:19:54;;;;;;;4.40;2.43;;;21.70;98.00;;;;;;5072022;28;20468;-66
2022/10/07 10:22:26;;;;;;;4.40;2.40;;;21.90;98.00;;;;;;5072028;28;20525;-66
2022/10/07 10:27:50;;;;;;;2.70;2.13;;;22.30;98.00;;;;;;5072041;28;20483;-67
2022/10/07 10:30:20;;;;;;;4.13;2.40;;;22.40;98.00;;;;;;5071937;28;20476;-66
2022/10/07 10:33:17;;;;;;;3.50;2.53;;;22.60;98.00;;;;;;5071878;28;20465;-66
2022/10/07 10:35:54;;;;;;;3.13;2.30;;;22.80;98.00;;;;;;5071860;28;20582;-65
2022/10/07 10:38:32;;;;;;;2.70;2.33;;;23.00;98.00;;;;;;5072111;28;20869;-65
2022/10/07 10:41:08;;;;;;;4.80;2.87;;;23.20;98.00;;;;;;5071853;28;20540;-66
2022/10/07 10:43:54;;;;;;;6.00;2.60;;;23.30;98.00;;;;;;5071622;28;20487;-66
2022/10/07 10:46:40;;;;;;;4.00;2.60;;;23.50;98.00;;;;;;5071846;28;20466;-66
2022/10/07 10:49:19;;;;;;;8.00;3.10;;;23.50;98.00;;;;;;5055128;28;20830;-66
2022/10/07 10:52:18;;;;;;;6.83;3.40;;;23.10;98.00;;;;;;5071654;28;20453;-66
2022/10/07 10:55:00;;;;;;;4.40;2.70;;;22.90;98.00;;;;;;5071504;28;20508;-66
2022/10/07 10:57:40;;;;;;;3.70;2.70;;;22.90;98.00;;;;;;5071562;28;20469;-65
2022/10/07 11:00:12;;;;;;;6.20;3.40;;;23.20;98.00;;;;;;5071377;28;20463;-66
2022/10/07 11:03:23;;;;;;;3.97;2.80;;;23.50;98.00;;;;;;5071375;28;20492;-66
2022/10/07 11:05:52;;;;;;;4.60;2.70;;;23.80;98.00;;;;;;5071486;28;20484;-66
2022/10/07 11:08:22;;;;;;;5.20;3.57;;;24.10;98.00;;;;;;5071322;28;20503;-66
2022/10/07 11:10:54;;;;;;;5.70;3.30;;;24.40;98.00;;;;;;5071398;28;20456;-65
2022/10/07 11:13:33;;;;;;;4.43;3.00;;;24.60;98.00;;;;;;5071246;28;20865;-67
2022/10/07 11:16:08;;;;;;;4.60;3.10;;;24.70;96.40;;;;;;5071156;28;20457;-66
2022/10/07 11:18:41;;;;;;;5.07;3.07;;;24.70;96.10;;;;;;5071238;28;20456;-66
2022/10/07 11:21:13;;;;;;;5.17;3.10;;;25.00;95.80;;;;;;5071246;28;20950;-66
2022/10/07 11:23:49;;;;;;;5.70;3.10;;;25.10;96.50;;;;;;5071088;28;20564;-66
2022/10/07 11:26:21;;;;;;;6.83;3.30;;;25.10;94.80;;;;;;5071189;28;20448;-65
2022/10/07 11:28:50;;;;;;;7.80;3.70;;;24.90;95.60;;;;;;5071127;28;20460;-63
2022/10/07 11:31:31;;;;;;;7.10;3.30;;;24.90;94.80;;;;;;5071186;28;20479;-68
2022/10/07 11:34:14;;;;;;;5.90;3.60;;;24.60;96.40;;;;;;5053548;28;20770;-67
2022/10/07 11:36:51;;;;;;;8.57;3.40;;;24.30;96.50;;;;;;5071123;28;20941;-68
2022/10/07 11:39:18;;;;;;;6.50;3.20;;;24.40;97.70;;;;;;5054281;28;20506;-68
2022/10/07 11:41:52;;;;;;;4.60;3.10;;;24.70;98.00;;;;;;5071298;28;20519;-69
2022/10/07 11:44:25;;;;;;;7.40;3.33;;;25.00;95.90;;;;;;5071213;28;20580;-68
2022/10/07 11:46:56;;;;;;;4.50;3.07;;;25.10;96.90;;;;;;5071295;28;20983;-69
2022/10/07 11:49:28;;;;;;;5.50;3.20;;;25.20;97.10;;;;;;5071192;28;20452;-68
2022/10/07 11:52:00;;;;;;;5.10;3.13;;;24.90;96.20;;;;;;5071053;28;20460;-68
2022/10/07 11:54:31;;;;;;;6.40;3.07;;;24.20;97.00;;;;;;5071140;28;20476;-69
2022/10/07 11:56:59;;;;;;;5.67;3.23;;;23.60;98.00;;;;;;5070904;28;20464;-68
2022/10/07 11:59:37;;;;;;;5.60;3.00;;;23.30;98.00;;;;;;5054940;28;20543;-68
2022/10/07 12:02:26;;;;;;;5.70;3.37;;;23.40;98.00;;;;;;5056898;28;20453;-68
2022/10/07 12:04:54;;;;;;;5.30;3.17;;;23.80;98.00;;;;;;5074424;28;20491;-67
2022/10/07 12:07:35;;;;;;;3.97;2.60;;;24.50;98.00;;;;;;5074705;28;20456;-67
2022/10/07 12:10:25;;;;;;;6.30;3.37;;;25.10;96.70;;;;;;5074500;28;20511;-66
2022/10/07 12:13:01;;;;;;;6.10;3.50;;;25.30;96.40;;;;;;5057705;28;20465;-69
2022/10/07 12:15:35;;;;;;;7.43;3.73;;;25.10;96.00;;;;;;5074559;28;20463;-67
2022/10/07 12:18:33;;;;;;;6.70;3.97;;;24.70;97.60;;;;;;5074381;28;20977;-67
2022/10/07 12:21:06;;;;;;;5.50;3.20;;;24.20;97.60;;;;;;4992652;28;20596;-68
2022/10/07 12:23:39;;;;;;;5.00;3.00;;;24.00;98.00;;;;;;5058941;28;20738;-68
2022/10/07 12:26:49;;;;;;;6.30;3.53;;;24.40;98.00;;;;;;5074355;28;20460;-68
2022/10/07 12:29:27;;;;;;;6.00;3.60;;;24.90;98.00;;;;;;5074223;28;20582;-68
2022/10/07 12:31:55;;;;;;;5.63;3.30;;;25.00;96.30;;;;;;5074380;28;20534;-68
2022/10/07 12:34:33;;;;;;;5.33;3.20;;;25.40;96.20;;;;;;5074370;28;20947;-66
2022/10/07 12:37:33;;;;;;;8.40;4.20;;;25.60;94.60;;;;;;5074153;28;20488;-67
2022/10/07 12:40:05;;;;;;;4.97;3.10;;;25.30;96.00;;;;;;5067838;28;20526;-66
2022/10/07 12:42:33;;;;;;;4.20;2.70;;;24.70;96.60;;;;;;5074121;28;20966;-64
2022/10/07 12:45:02;;;;;;;6.13;3.20;;;24.40;98.00;;;;;;5056474;28;20507;-65
2022/10/07 12:47:30;;;;;;;5.93;3.60;;;24.30;98.00;;;;;;5074353;28;20452;-63
2022/10/07 12:50:07;;;;;;;5.23;3.07;;;24.70;97.70;;;;;;5073811;28;20457;-63
2022/10/07 12:52:42;;;;;;;5.50;2.90;;;25.20;95.60;;;;;;5074116;28;20833;-63
2022/10/07 12:55:14;;;;;;;6.27;3.50;;;25.70;95.90;;;;;;5073837;28;20856;-65
2022/10/07 12:57:47;;;;;;;7.73;3.77;;;26.10;94.20;;;;;;5073431;28;20504;-65
2022/10/07 13:00:16;;;;;;;6.80;3.90;;;26.10;92.30;;;;;;5073782;28;20453;-65
2022/10/07 13:03:14;;;;;;;5.77;3.67;;;25.80;93.40;;;;;;5073704;28;20826;-66
2022/10/07 13:06:22;;;;;;;5.90;3.30;;;25.20;95.30;;;;;;5073548;28;20491;-66
2022/10/07 13:09:33;;;;;;;4.73;3.00;;;24.50;97.70;;;;;;5007931;28;20464;-71
2022/10/07 13:12:15;;;;;;;4.83;2.70;;;24.70;97.80;;;;;;5031607;28;20468;-67
2022/10/07 13:14:57;;;;;;;5.80;3.20;;;25.30;96.60;;;;;;5073580;28;20456;-66
2022/10/07 13:17:39;;;;;;;7.90;3.73;;;25.70;95.50;;;;;;5073383;28;20500;-66
2022/10/07 13:20:20;;;;;;;6.23;4.10;;;26.00;94.70;;;;;;5073254;28;20453;-66